Time;durP1;ratioP1;P1;durP2;ratioP2;P2;SDS_P1;SDS_P2;PMS_P1;PMS_P2;Temp;Humidity;BMP_temperature;BMP_pressure;BME280_temperature;BME280_humidity;BME280_pressure;Samples;Min_cycle;Max_cycle;Signal;HPM_P1;HPM_P2
2023/09/24 00:00:56;;;;;;;52.40;5.13;;;;;;;22.54;50.94;100018.16;7315535;19;131713;-36
2023/09/24 00:03:22;;;;;;;39.60;4.15;;;;;;;22.51;49.42;100018.41;7315978;19;130398;-36
2023/09/24 00:05:47;;;;;;;122.97;9.30;;;;;;;22.40;49.27;100006.22;7314418;19;130831;-37
2023/09/24 00:08:12;;;;;;;76.97;6.10;;;;;;;22.51;49.62;100021.03;7314894;19;130102;-35
2023/09/24 00:10:38;;;;;;;61.40;5.90;;;;;;;22.55;49.29;100027.66;7313149;19;130138;-35
2023/09/24 00:13:03;;;;;;;31.52;3.83;;;;;;;22.54;50.06;100033.88;7312971;19;130509;-37
2023/09/24 00:15:30;;;;;;;42.50;3.87;;;;;;;22.53;49.96;100026.97;7314705;19;128961;-37
2023/09/24 00:17:56;;;;;;;;;;;;;;;22.47;51.98;100011.75;7311835;19;129109;-35
2023/09/24 00:20:21;;;;;;;45.30;4.43;;;;;;;22.53;49.37;100025.19;7313087;19;131120;-36
2023/09/24 00:22:47;;;;;;;49.17;4.97;;;;;;;22.51;49.79;100028.88;7312283;19;130388;-35
2023/09/24 00:25:15;;;;;;;43.42;3.95;;;;;;;22.49;49.93;100020.31;7316685;19;129309;-37
2023/09/24 00:27:41;;;;;;;61.28;4.88;;;;;;;22.38;49.81;100007.34;7311888;19;129091;-35
2023/09/24 00:30:09;;;;;;;51.90;5.03;;;;;;;22.50;49.29;100027.22;7309915;19;130772;-36
2023/09/24 00:32:35;;;;;;;35.40;3.80;;;;;;;22.45;49.55;100019.75;7312632;19;130486;-36
2023/09/24 00:35:01;;;;;;;44.07;4.10;;;;;;;22.38;49.80;100007.34;7314982;19;129166;-36
2023/09/24 00:37:27;;;;;;;60.10;5.03;;;;;;;22.52;49.23;100027.91;7312811;19;129616;-36
2023/09/24 00:39:52;;;;;;;43.38;4.35;;;;;;;22.51;49.29;100036.75;7311009;19;130225;-37
2023/09/24 00:42:18;;;;;;;25.08;3.35;;;;;;;22.44;49.31;100033.84;7314020;19;131127;-37
2023/09/24 00:44:43;;;;;;;118.50;8.30;;;;;;;22.39;49.25;100029.94;7311569;19;128863;-36
2023/09/24 00:47:09;;;;;;;58.47;5.27;;;;;;;22.48;49.56;100044.84;7314673;19;128784;-36
2023/09/24 00:49:35;;;;;;;43.15;4.25;;;;;;;22.49;48.80;100046.53;7309670;19;130316;-35
2023/09/24 00:52:00;;;;;;;21.47;2.90;;;;;;;22.48;48.90;100047.47;7314558;19;132838;-37
2023/09/24 00:54:26;;;;;;;61.40;5.33;;;;;;;22.44;49.32;100039.06;7311627;19;129610;-37
2023/09/24 00:56:52;;;;;;;89.47;7.73;;;;;;;22.35;48.95;100023.31;7313036;19;129262;-36
2023/09/24 00:59:18;;;;;;;39.33;3.65;;;;;;;22.47;49.39;100049.28;7310062;19;131173;-36
2023/09/24 01:01:44;;;;;;;63.08;5.65;;;;;;;22.47;49.04;100048.44;7311478;19;130817;-36
2023/09/24 01:04:11;;;;;;;85.72;6.38;;;;;;;22.48;49.03;100056.16;7310587;19;129207;-36
2023/09/24 01:06:37;;;;;;;28.13;3.33;;;;;;;22.49;48.70;100049.16;7313972;19;130039;-34
2023/09/24 01:09:08;;;;;;;158.73;10.77;;;;;;;22.48;49.00;100048.31;7308181;19;130319;-36
2023/09/24 01:11:34;;;;;;;47.85;4.65;;;;;;;22.47;49.32;100051.06;7311030;19;130494;-36
2023/09/24 01:14:00;;;;;;;78.32;6.00;;;;;;;22.28;49.70;100025.63;7310150;19;129490;-33
2023/09/24 01:16:25;;;;;;;42.92;4.35;;;;;;;22.41;48.65;100049.78;7313014;19;129282;-37
2023/09/24 01:18:53;;;;;;;104.20;8.73;;;;;;;22.45;49.03;100055.59;7309465;19;129680;-36
2023/09/24 01:21:18;;;;;;;22.58;3.40;;;;;;;22.43;48.69;100062.78;7312128;19;130633;-37
2023/09/24 01:23:45;;;;;;;98.60;7.63;;;;;;;22.44;49.26;100059.19;7310087;19;129362;-35
2023/09/24 01:26:13;;;;;;;29.27;3.90;;;;;;;22.43;49.38;100060.97;7311930;19;129619;-36
2023/09/24 01:28:39;;;;;;;28.65;3.53;;;;;;;22.43;48.59;100066.22;7309662;19;130303;-35
2023/09/24 01:31:05;;;;;;;25.47;3.23;;;;;;;22.42;49.49;100067.19;7309306;19;131115;-36
2023/09/24 01:33:31;;;;;;;118.93;8.03;;;;;;;22.42;48.92;100071.59;7311995;19;129102;-36
2023/09/24 01:35:57;;;;;;;33.50;3.97;;;;;;;22.38;48.89;100065.78;7309407;19;129065;-34
2023/09/24 01:38:23;;;;;;;37.88;3.88;;;;;;;22.27;48.58;100051.97;7311191;19;131472;-36
2023/09/24 01:40:49;;;;;;;57.40;5.07;;;;;;;22.40;49.18;100076.13;7309973;19;131201;-37
2023/09/24 01:43:14;;;;;;;77.40;5.60;;;;;;;22.41;48.73;100075.19;7312817;19;129745;-33
2023/09/24 01:45:40;;;;;;;113.47;8.18;;;;;;;22.41;48.94;100075.19;7308066;19;131660;-36
2023/09/24 01:48:07;;;;;;;54.78;5.07;;;;;;;22.39;48.83;100077.09;7311554;19;129541;-37
2023/09/24 01:50:33;;;;;;;48.47;4.68;;;;;;;22.38;48.91;100076.28;7309810;19;130271;-35
2023/09/24 01:52:59;;;;;;;49.37;4.27;;;;;;;22.38;48.70;100092.00;7312323;19;129288;-36
2023/09/24 01:55:28;;;;;;;30.90;3.47;;;;;;;22.38;50.62;100093.78;7312127;19;129819;-37
2023/09/24 01:57:55;;;;;;;129.70;8.80;;;;;;;22.37;49.11;100094.75;7307573;19;131195;-36
2023/09/24 02:00:24;;;;;;;;;;;;;;;22.41;51.41;100098.78;7309667;19;131125;-36
2023/09/24 02:02:59;;;;;;;111.63;7.50;;;;;;;22.38;51.16;100096.41;7308318;19;128938;-35
2023/09/24 02:05:25;;;;;;;85.20;5.93;;;;;;;22.37;48.45;100099.97;7311191;19;129614;-36
2023/09/24 02:07:51;;;;;;;126.25;8.57;;;;;;;22.35;49.21;100107.13;7307815;19;130934;-36
2023/09/24 02:10:18;;;;;;;59.87;4.87;;;;;;;22.34;49.07;100115.97;7306652;19;129742;-37
2023/09/24 02:12:45;;;;;;;64.75;5.22;;;;;;;22.33;48.80;100112.50;7305457;19;130626;-36
2023/09/24 02:15:17;;;;;;;99.00;6.80;;;;;;;22.33;48.70;100106.47;7310298;19;129157;-37
2023/09/24 02:17:44;;;;;;;61.38;4.72;;;;;;;22.33;48.91;100114.31;7304899;19;130239;-37
2023/09/24 02:20:25;;;;;;;36.47;3.28;;;;;;;22.34;48.95;100115.97;7307079;19;130291;-37
2023/09/24 02:22:52;;;;;;;58.85;4.85;;;;;;;22.32;48.92;100123.13;7308649;19;129350;-37
2023/09/24 02:25:19;;;;;;;56.80;4.13;;;;;;;22.29;48.78;100115.53;7311026;19;129054;-36
2023/09/24 02:27:44;;;;;;;;;;;;;;;22.35;50.72;100121.06;7309267;19;132068;-34
2023/09/24 02:30:13;;;;;;;54.17;4.03;;;;;;;22.31;48.40;100118.84;7309107;19;129366;-36
2023/09/24 02:32:40;;;;;;;61.90;4.70;;;;;;;22.26;48.96;100113.19;7308848;19;130792;-36
2023/09/24 02:35:08;;;;;;;37.88;3.30;;;;;;;22.28;48.56;100116.50;7311354;19;129148;-35
2023/09/24 02:37:33;;;;;;;55.47;4.03;;;;;;;22.30;48.22;100119.78;7309420;19;130220;-36
2023/09/24 02:39:59;;;;;;;62.30;4.67;;;;;;;22.32;48.83;100125.75;7302265;19;130413;-33
2023/09/24 02:42:25;;;;;;;29.97;2.80;;;;;;;22.20;48.44;100113.69;7309532;19;129137;-36
2023/09/24 02:44:50;;;;;;;69.68;5.38;;;;;;;22.30;48.42;100130.28;7308656;19;129064;-36
2023/09/24 02:47:16;;;;;;;76.28;5.32;;;;;;;22.37;48.23;100141.91;7309326;19;130338;-36
2023/09/24 02:49:42;;;;;;;30.73;2.90;;;;;;;22.37;48.27;100139.28;7307357;19;130481;-38
2023/09/24 02:52:08;;;;;;;54.42;4.18;;;;;;;22.36;49.00;100141.06;7307884;19;128852;-36
2023/09/24 02:54:33;;;;;;;75.63;4.97;;;;;;;22.35;48.75;100144.66;7308550;19;129586;-36
2023/09/24 02:56:59;;;;;;;68.53;4.68;;;;;;;22.34;48.59;100150.03;7309724;19;130193;-35
2023/09/24 02:59:24;;;;;;;57.17;4.35;;;;;;;22.34;48.54;100158.72;7307029;19;130339;-36
2023/09/24 03:01:52;;;;;;;60.10;4.68;;;;;;;22.31;48.71;100160.78;7310311;19;129037;-35
2023/09/24 03:04:18;;;;;;;79.65;5.47;;;;;;;22.34;48.03;100179.69;7307246;19;129437;-35
2023/09/24 03:06:43;;;;;;;52.23;3.97;;;;;;;22.33;48.10;100183.25;7309823;19;131081;-37
2023/09/24 03:09:10;;;;;;;115.57;7.67;;;;;;;22.34;48.18;100198.00;7307615;19;131873;-37
2023/09/24 03:11:37;;;;;;;69.63;4.85;;;;;;;22.33;47.97;100201.56;7306826;19;129644;-36
2023/09/24 03:14:03;;;;;;;97.63;5.90;;;;;;;22.33;48.87;100203.38;7309879;19;129498;-37
2023/09/24 03:16:29;;;;;;;63.33;4.83;;;;;;;22.34;48.21;100205.03;7308872;19;130235;-35
2023/09/24 03:18:55;;;;;;;65.22;5.30;;;;;;;22.31;48.07;100200.06;7308061;19;130582;-36
2023/09/24 03:21:20;;;;;;;39.95;3.53;;;;;;;22.34;48.19;100216.34;7308157;19;129356;-36
2023/09/24 03:23:45;;;;;;;61.23;4.40;;;;;;;22.33;48.15;100213.88;7308050;19;129088;-37
2023/09/24 03:26:14;;;;;;;29.17;2.73;;;;;;;22.31;48.31;100210.53;7309432;19;131029;-36
2023/09/24 03:28:40;;;;;;;44.67;3.58;;;;;;;22.35;48.23;100207.53;7308202;19;130435;-37
2023/09/24 03:31:16;;;;;;;46.13;3.60;;;;;;;22.31;50.08;100206.13;7305159;19;129672;-37
2023/09/24 03:33:42;;;;;;;68.28;4.68;;;;;;;22.31;48.32;100210.53;7308592;19;128887;-37
2023/09/24 03:36:08;;;;;;;47.27;3.60;;;;;;;22.30;47.97;100221.97;7308379;19;130181;-36
2023/09/24 03:38:36;;;;;;;47.53;3.67;;;;;;;22.29;49.36;100223.78;7308159;19;131474;-36
2023/09/24 03:41:03;;;;;;;60.85;4.75;;;;;;;22.30;48.46;100230.66;7306776;19;130886;-37
2023/09/24 03:43:29;;;;;;;39.15;3.30;;;;;;;22.29;48.54;100228.16;7309013;19;129219;-37
2023/09/24 03:45:54;;;;;;;89.63;6.40;;;;;;;22.28;47.79;100229.13;7307096;19;130195;-36
2023/09/24 03:48:23;;;;;;;48.40;3.43;;;;;;;22.26;49.67;100228.44;7307934;19;130952;-37
2023/09/24 03:50:49;;;;;;;109.07;7.78;;;;;;;22.28;48.35;100229.94;7301554;19;129240;-37
2023/09/24 03:53:17;;;;;;;61.97;4.53;;;;;;;22.29;47.92;100234.25;7308684;19;128951;-36
2023/09/24 03:55:45;;;;;;;75.63;5.15;;;;;;;22.29;47.89;100238.66;7308634;19;130245;-35
2023/09/24 03:58:10;;;;;;;54.50;4.28;;;;;;;22.23;48.61;100231.31;7308080;19;131414;-36
2023/09/24 04:00:36;;;;;;;67.20;5.07;;;;;;;22.27;48.60;100249.25;7304762;19;129313;-35
2023/09/24 04:03:01;;;;;;;85.07;6.13;;;;;;;22.12;48.41;100223.50;7304711;19;130815;-36
2023/09/24 04:05:27;;;;;;;53.10;3.92;;;;;;;22.24;48.29;100249.50;7308938;19;129917;-35
2023/09/24 04:07:54;;;;;;;76.88;5.47;;;;;;;22.24;49.04;100243.44;7306331;19;130362;-36
2023/09/24 04:10:22;;;;;;;53.60;4.00;;;;;;;22.23;48.25;100249.66;7302849;19;131122;-36
2023/09/24 04:12:50;;;;;;;55.13;4.00;;;;;;;22.24;48.18;100253.91;7307490;19;129803;-34
2023/09/24 04:15:19;;;;;;;66.00;4.60;;;;;;;22.23;48.46;100254.88;7307181;19;130316;-37
2023/09/24 04:17:48;;;;;;;64.97;4.68;;;;;;;22.22;48.64;100258.44;7306882;19;130413;-34
2023/09/24 04:20:19;;;;;;;31.33;3.08;;;;;;;22.22;48.35;100266.31;7304417;19;129020;-36
2023/09/24 04:22:45;;;;;;;42.55;3.40;;;;;;;22.23;47.96;100265.38;7308150;19;129599;-36
2023/09/24 04:25:32;;;;;;;84.72;5.63;;;;;;;22.23;47.96;100273.22;7305217;19;130308;-35
2023/09/24 04:27:59;;;;;;;180.90;11.47;;;;;;;22.22;48.12;100274.16;7303873;19;129768;-37
2023/09/24 04:30:25;;;;;;;32.53;2.85;;;;;;;22.21;48.52;100280.38;7305814;19;129006;-35
2023/09/24 04:32:52;;;;;;;28.43;2.67;;;;;;;22.20;48.10;100279.53;7305071;19;129508;-36
2023/09/24 04:35:19;;;;;;;;;;;;;;;22.26;50.46;100281.66;7305181;19;130285;-36
2023/09/24 04:37:45;;;;;;;72.83;4.80;;;;;;;22.23;48.91;100283.69;7313038;19;130214;-35
2023/09/24 04:40:11;;;;;;;47.23;3.73;;;;;;;22.10;47.96;100265.53;7308839;19;130228;-35
2023/09/24 04:42:37;;;;;;;35.90;3.22;;;;;;;22.17;48.76;100276.31;7311912;19;129740;-36
2023/09/24 04:45:03;;;;;;;60.10;4.60;;;;;;;22.18;48.69;100294.53;7313698;19;130333;-38
2023/09/24 04:47:29;;;;;;;54.03;3.87;;;;;;;22.19;49.02;100300.59;7310127;19;130559;-36
2023/09/24 04:49:54;;;;;;;63.80;4.77;;;;;;;22.20;47.80;100297.03;7312424;19;129209;-34
2023/09/24 04:52:20;;;;;;;203.55;13.80;;;;;;;22.18;48.53;100298.97;7305473;19;129615;-36
2023/09/24 04:54:45;;;;;;;86.20;5.80;;;;;;;22.18;48.16;100298.97;7308772;19;131120;-35
2023/09/24 04:57:11;;;;;;;81.27;5.63;;;;;;;22.08;48.67;100288.38;7312303;19;130521;-35
2023/09/24 04:59:36;;;;;;;44.92;3.67;;;;;;;22.18;47.99;100301.56;7311095;19;128891;-41
2023/09/24 05:02:02;;;;;;;88.10;6.18;;;;;;;22.18;48.01;100318.09;7309509;19;129321;-36
2023/09/24 05:04:27;;;;;;;73.33;5.63;;;;;;;22.16;48.56;100321.81;7311180;19;129774;-37
2023/09/24 05:06:54;;;;;;;64.87;4.43;;;;;;;22.02;48.59;100303.78;7311984;19;130353;-35
2023/09/24 05:09:20;;;;;;;101.93;6.57;;;;;;;22.02;48.27;100304.59;7308925;19;129536;-36
2023/09/24 05:11:46;;;;;;;62.63;4.60;;;;;;;22.02;48.37;100309.84;7309887;19;129029;-36
2023/09/24 05:14:11;;;;;;;60.17;4.35;;;;;;;22.15;48.18;100330.66;7311233;19;130325;-36
2023/09/24 05:16:37;;;;;;;46.30;3.72;;;;;;;22.13;48.38;100327.31;7313624;19;130840;-36
2023/09/24 05:19:05;;;;;;;70.13;5.43;;;;;;;22.14;48.10;100336.81;7310292;19;130052;-36
2023/09/24 05:21:30;;;;;;;39.58;3.58;;;;;;;22.12;48.62;100331.72;7310940;19;129422;-37
2023/09/24 05:23:56;;;;;;;107.10;7.15;;;;;;;22.12;48.09;100334.31;7311463;19;130529;-36
2023/09/24 05:26:21;;;;;;;57.77;4.60;;;;;;;22.14;48.20;100339.44;7314365;19;130335;-36
2023/09/24 05:28:48;;;;;;;43.27;3.73;;;;;;;22.13;48.73;100341.22;7311359;19;129565;-37
2023/09/24 05:31:16;;;;;;;63.05;4.60;;;;;;;22.10;48.25;100338.03;7309944;19;129113;-34
2023/09/24 05:33:44;;;;;;;78.00;5.45;;;;;;;22.11;48.72;100350.16;7308543;19;130267;-37
2023/09/24 05:36:10;;;;;;;61.38;5.00;;;;;;;22.09;48.34;100358.16;7311176;19;131081;-37
2023/09/24 05:38:35;;;;;;;60.07;5.10;;;;;;;22.11;48.89;100355.41;7308699;19;129778;-37
2023/09/24 05:41:00;;;;;;;65.47;5.43;;;;;;;22.13;48.65;100354.31;7311246;19;129344;-37
2023/09/24 05:43:26;;;;;;;144.60;9.32;;;;;;;22.12;48.69;100362.28;7309681;19;130287;-37
2023/09/24 05:45:51;;;;;;;26.00;2.88;;;;;;;22.11;48.40;100360.66;7310036;19;130592;-36
2023/09/24 05:48:17;;;;;;;34.60;3.65;;;;;;;22.10;48.46;100361.63;7310865;19;129805;-36
2023/09/24 05:50:43;;;;;;;48.57;4.60;;;;;;;22.05;48.68;100363.78;7305073;19;130365;-36
2023/09/24 05:53:14;;;;;;;128.32;8.50;;;;;;;22.08;50.60;100380.03;7310867;19;130166;-37
2023/09/24 05:55:40;;;;;;;39.75;3.53;;;;;;;22.03;48.57;100377.00;7307510;19;131354;-36
2023/09/24 05:58:06;;;;;;;97.87;7.10;;;;;;;22.07;48.92;100383.63;7309740;19;130117;-35
2023/09/24 06:00:36;;;;;;;34.28;3.30;;;;;;;22.07;50.42;100385.41;7304933;19;132784;-36
2023/09/24 06:03:01;;;;;;;142.57;9.02;;;;;;;22.06;49.43;100379.34;7306065;19;129221;-36
2023/09/24 06:05:28;;;;;;;67.53;5.00;;;;;;;22.04;49.19;100385.66;7310043;19;130578;-35
2023/09/24 06:07:53;;;;;;;;;;;;;;;22.12;51.02;100393.72;7308569;19;129136;-36
2023/09/24 06:10:20;;;;;;;42.37;3.27;;;;;;;22.07;48.76;100385.41;7304697;19;129754;-35
2023/09/24 06:12:46;;;;;;;39.33;3.28;;;;;;;22.07;49.15;100390.63;7310514;19;131011;-35
2023/09/24 06:15:13;;;;;;;100.57;6.50;;;;;;;22.06;48.91;100404.69;7307506;19;129355;-36
2023/09/24 06:17:39;;;;;;;46.55;3.60;;;;;;;22.04;48.75;100402.22;7307291;19;129143;-36
2023/09/24 06:20:05;;;;;;;109.73;7.57;;;;;;;22.06;49.09;100409.94;7301595;19;129804;-35
2023/09/24 06:22:31;;;;;;;62.30;4.28;;;;;;;22.04;48.79;100409.22;7304005;19;130851;-37
2023/09/24 06:24:57;;;;;;;104.17;6.97;;;;;;;22.04;49.23;100417.06;7305243;19;130903;-35
2023/09/24 06:27:22;;;;;;;93.03;6.00;;;;;;;22.04;48.75;100417.06;7307799;19;129660;-36
2023/09/24 06:29:47;;;;;;;24.83;2.63;;;;;;;22.04;49.36;100417.06;7307310;19;129624;-36
2023/09/24 06:32:13;;;;;;;181.07;11.77;;;;;;;22.03;49.13;100431.13;7298868;19;130906;-37
2023/09/24 06:34:39;;;;;;;35.22;3.03;;;;;;;21.98;49.06;100422.81;7307350;19;130387;-36
2023/09/24 06:37:04;;;;;;;100.43;6.80;;;;;;;22.04;49.31;100430.16;7306514;19;129923;-37
2023/09/24 06:39:30;;;;;;;45.93;3.53;;;;;;;22.04;49.10;100422.31;7304905;19;130066;-33
2023/09/24 06:41:56;;;;;;;68.90;4.70;;;;;;;22.03;49.69;100431.13;7306105;19;131207;-36
2023/09/24 06:44:23;;;;;;;74.85;5.10;;;;;;;22.05;49.56;100431.84;7302826;19;130478;-37
2023/09/24 06:46:49;;;;;;;84.38;5.90;;;;;;;22.04;49.57;100432.78;7307731;19;130422;-34
2023/09/24 06:49:14;;;;;;;83.80;5.68;;;;;;;22.03;49.38;100428.50;7304710;19;129394;-36
2023/09/24 06:51:40;;;;;;;88.83;5.97;;;;;;;22.04;49.63;100432.78;7306528;19;129962;-34
2023/09/24 06:54:05;;;;;;;87.47;6.83;;;;;;;22.02;49.13;100438.16;7306098;19;130465;-37
2023/09/24 06:56:31;;;;;;;78.57;5.53;;;;;;;22.01;49.28;100433.03;7306636;19;130199;-34
2023/09/24 06:58:56;;;;;;;59.60;4.40;;;;;;;22.03;50.70;100441.59;7303170;19;129472;-34
2023/09/24 07:01:22;;;;;;;41.40;3.47;;;;;;;22.06;50.34;100441.34;7306780;19;129538;-35
2023/09/24 07:03:48;;;;;;;60.13;4.47;;;;;;;22.10;49.62;100445.41;7304259;19;130468;-36
2023/09/24 07:06:15;;;;;;;79.05;5.68;;;;;;;22.15;49.77;100445.88;7304948;19;129409;-37
2023/09/24 07:08:40;;;;;;;86.38;5.75;;;;;;;22.18;49.92;100450.88;7303871;19;129682;-36
2023/09/24 07:11:26;;;;;;;80.07;6.20;;;;;;;22.21;51.26;100455.84;7307379;19;130261;-35
2023/09/24 07:13:52;;;;;;;82.38;5.55;;;;;;;22.15;49.57;100451.13;7303600;19;130570;-36
2023/09/24 07:16:22;;;;;;;49.00;3.60;;;;;;;22.17;50.79;100464.91;7304242;19;128945;-37
2023/09/24 07:18:50;;;;;;;39.10;2.83;;;;;;;22.18;49.32;100461.34;7306851;19;129733;-33
2023/09/24 07:21:21;;;;;;;77.13;5.68;;;;;;;22.16;49.99;100463.25;7303719;19;131201;-36
2023/09/24 07:23:47;;;;;;;61.20;4.28;;;;;;;22.20;49.75;100464.66;7308480;19;131061;-36
2023/09/24 07:26:16;;;;;;;108.47;7.35;;;;;;;22.18;50.38;100469.19;7302660;19;129516;-37
2023/09/24 07:28:41;;;;;;;58.90;4.20;;;;;;;22.16;49.52;100478.97;7305336;19;129565;-35
2023/09/24 07:31:21;;;;;;;90.07;6.17;;;;;;;22.14;51.52;100476.47;7305937;19;130332;-34
2023/09/24 07:33:48;;;;;;;62.78;4.40;;;;;;;22.09;50.03;100476.00;7308276;19;131134;-33
2023/09/24 07:36:14;;;;;;;73.00;4.83;;;;;;;22.09;50.10;100472.53;7308111;19;129750;-37
2023/09/24 07:38:42;;;;;;;179.73;11.57;;;;;;;22.08;49.27;100463.03;7297487;19;130655;-36
2023/09/24 07:41:08;;;;;;;98.18;6.97;;;;;;;22.08;49.66;100458.59;7301569;19;130252;-35
2023/09/24 07:43:36;;;;;;;83.47;5.43;;;;;;;22.08;49.33;100465.66;7303910;19;131145;-36
2023/09/24 07:46:02;;;;;;;79.57;5.78;;;;;;;22.04;49.74;100458.97;7302583;19;129862;-36
2023/09/24 07:48:27;;;;;;;55.73;3.93;;;;;;;22.06;49.52;100473.63;7307273;19;129342;-37
2023/09/24 07:50:54;;;;;;;35.33;2.83;;;;;;;21.93;49.98;100457.22;7303336;19;130769;-37
2023/09/24 07:53:22;;;;;;;;;;;;;;;22.08;52.01;100482.16;7300858;19;131073;-35
2023/09/24 07:55:54;;;;;;;63.63;4.45;;;;;;;22.03;51.19;100480.88;7308427;19;130650;-36
2023/09/24 07:58:20;;;;;;;75.85;5.65;;;;;;;22.01;50.38;100485.41;7306128;19;129141;-34
2023/09/24 08:00:45;;;;;;;24.30;2.40;;;;;;;22.00;50.09;100484.56;7303821;19;129868;-37
2023/09/24 08:03:10;;;;;;;106.28;7.28;;;;;;;22.03;50.36;100488.75;7304469;19;129570;-36
2023/09/24 08:05:36;;;;;;;149.75;9.25;;;;;;;22.03;50.17;100488.75;7302837;19;130228;-37
2023/09/24 08:08:01;;;;;;;94.20;6.23;;;;;;;22.03;50.78;100488.75;7306715;19;129107;-37
2023/09/24 08:10:26;;;;;;;61.38;4.30;;;;;;;22.02;50.35;100497.53;7302280;19;130207;-35
2023/09/24 08:12:52;;;;;;;52.88;3.92;;;;;;;21.87;50.19;100469.00;7313030;19;129683;-37
2023/09/24 08:15:17;;;;;;;73.57;5.47;;;;;;;22.03;50.24;100488.75;7313874;19;129157;-36
2023/09/24 08:17:43;;;;;;;36.00;3.20;;;;;;;22.03;50.78;100499.22;7316171;19;128887;-34
2023/09/24 08:20:09;;;;;;;70.55;5.13;;;;;;;22.03;50.38;100499.22;7310191;19;130171;-38
2023/09/24 08:22:34;;;;;;;60.13;4.25;;;;;;;22.04;50.74;100506.09;7313565;19;130548;-36
2023/09/24 08:25:00;;;;;;;49.90;3.35;;;;;;;22.02;50.48;100503.63;7312552;19;129339;-37
2023/09/24 08:27:26;;;;;;;31.80;2.60;;;;;;;22.04;50.67;100511.34;7311159;19;129088;-37
2023/09/24 08:29:53;;;;;;;48.15;3.83;;;;;;;22.02;51.13;100513.25;7306244;19;130767;-35
2023/09/24 08:32:19;;;;;;;104.72;7.22;;;;;;;22.02;50.29;100514.09;7310183;19;129762;-37
2023/09/24 08:34:44;;;;;;;116.10;7.67;;;;;;;22.03;50.62;100512.31;7311568;19;129391;-34
2023/09/24 08:37:09;;;;;;;68.70;5.20;;;;;;;21.92;50.82;100493.03;7313076;19;129645;-36
2023/09/24 08:39:35;;;;;;;32.83;3.10;;;;;;;22.01;50.75;100507.19;7307265;19;129858;-36
2023/09/24 08:42:02;;;;;;;62.30;4.70;;;;;;;22.00;51.46;100504.69;7310858;19;130373;-34
2023/09/24 08:44:29;;;;;;;42.63;3.70;;;;;;;22.02;50.65;100514.09;7309709;19;129034;-35
2023/09/24 08:46:55;;;;;;;38.80;3.45;;;;;;;22.02;50.24;100518.47;7310057;19;130239;-37
2023/09/24 08:49:20;;;;;;;68.03;5.10;;;;;;;22.04;50.46;100521.81;7309008;19;130943;-36
2023/09/24 08:51:46;;;;;;;86.47;5.47;;;;;;;22.06;50.72;100525.16;7312218;19;130328;-36
2023/09/24 08:54:13;;;;;;;76.83;5.97;;;;;;;22.04;51.06;100521.81;7306491;19;130798;-35
2023/09/24 08:56:39;;;;;;;72.30;5.40;;;;;;;22.04;50.51;100533.13;7300366;19;129884;-36
2023/09/24 08:59:05;;;;;;;37.83;3.53;;;;;;;22.05;51.31;100534.78;7306100;19;129858;-37
2023/09/24 09:01:30;;;;;;;104.63;6.82;;;;;;;22.03;50.28;100525.41;7304611;19;130874;-36
2023/09/24 09:03:56;;;;;;;16.90;2.37;;;;;;;22.04;50.44;100527.06;7311082;19;130246;-34
2023/09/24 09:06:36;;;;;;;199.88;12.65;;;;;;;22.02;53.03;100528.94;7306769;19;130109;-35
2023/09/24 09:09:03;;;;;;;60.80;4.65;;;;;;;21.92;50.86;100513.97;7306212;19;130190;-36
2023/09/24 09:11:37;;;;;;;246.03;14.63;;;;;;;22.04;52.06;100532.28;7307612;19;130644;-36
2023/09/24 09:14:03;;;;;;;72.18;4.78;;;;;;;22.03;50.45;100541.13;7310632;19;129113;-36
2023/09/24 09:16:28;;;;;;;55.63;4.43;;;;;;;22.01;51.40;100533.38;7311463;19;129003;-35
2023/09/24 09:19:03;;;;;;;70.65;5.05;;;;;;;22.02;52.87;100528.94;7302298;19;130426;-36
2023/09/24 09:21:29;;;;;;;58.30;4.55;;;;;;;22.06;50.81;100535.63;7308959;19;129719;-36
2023/09/24 09:23:55;;;;;;;92.55;5.88;;;;;;;21.91;50.96;100514.09;7309531;19;130935;-35
2023/09/24 09:26:33;;;;;;;79.63;5.78;;;;;;;22.06;52.73;100538.25;7309356;19;129478;-37
2023/09/24 09:28:58;;;;;;;94.25;6.78;;;;;;;22.04;51.10;100533.13;7309740;19;130136;-36
2023/09/24 09:31:23;;;;;;;60.93;4.63;;;;;;;22.03;51.02;100533.25;7305166;19;130648;-37
2023/09/24 09:33:49;;;;;;;56.42;4.10;;;;;;;22.00;50.92;100530.88;7313184;19;129134;-36
2023/09/24 09:36:26;;;;;;;224.60;14.63;;;;;;;21.98;52.64;100529.19;7305312;19;129002;-34
2023/09/24 09:38:52;;;;;;;48.75;3.97;;;;;;;22.00;51.70;100530.88;7310464;19;130798;-36
2023/09/24 09:41:19;;;;;;;118.97;7.72;;;;;;;22.00;51.02;100531.69;7310491;19;130474;-34
2023/09/24 09:43:50;;;;;;;35.55;3.10;;;;;;;21.98;52.55;100529.19;7310211;19;129190;-36
2023/09/24 09:46:20;;;;;;;81.18;5.38;;;;;;;22.00;52.82;100528.28;7311884;19;129346;-37
2023/09/24 09:48:57;;;;;;;42.00;2.95;;;;;;;21.96;53.24;100520.63;7307921;19;129207;-36
2023/09/24 09:51:25;;;;;;;82.97;6.00;;;;;;;22.00;51.44;100528.28;7310881;19;130512;-36
2023/09/24 09:53:52;;;;;;;34.42;2.85;;;;;;;22.00;50.95;100531.69;7304107;19;131154;-36
2023/09/24 09:56:19;;;;;;;63.63;4.75;;;;;;;22.00;50.93;100528.28;7307444;19;130989;-36
2023/09/24 09:58:48;;;;;;;92.50;5.53;;;;;;;22.02;51.74;100528.94;7305345;19;130876;-36
2023/09/24 10:01:15;;;;;;;41.60;3.58;;;;;;;22.01;51.69;100532.53;7309089;19;130839;-37
2023/09/24 10:03:41;;;;;;;;;;;;;;;22.02;53.43;100523.72;7311531;19;128906;-37
2023/09/24 10:06:10;;;;;;;34.53;2.70;;;;;;;21.98;52.35;100519.69;7311262;19;129053;-35
2023/09/24 10:08:42;;;;;;;63.63;4.13;;;;;;;22.02;51.75;100523.72;7307632;19;131984;-37
2023/09/24 10:11:12;;;;;;;51.17;3.80;;;;;;;21.85;52.71;100507.53;7310698;19;130701;-36
2023/09/24 10:13:43;;;;;;;42.83;3.58;;;;;;;21.98;52.13;100527.53;7310908;19;130180;-37
2023/09/24 10:16:24;;;;;;;40.47;2.85;;;;;;;22.01;53.12;100535.16;7306524;19;128999;-35
2023/09/24 10:18:59;;;;;;;24.85;2.22;;;;;;;21.95;52.84;100533.84;7306026;19;132265;-37
2023/09/24 10:21:32;;;;;;;59.65;4.35;;;;;;;21.96;52.95;100538.13;7308370;19;130724;-36
2023/09/24 10:24:09;;;;;;;101.53;6.15;;;;;;;21.98;53.33;100545.88;7301854;19;129763;-35
2023/09/24 10:27:01;;;;;;;;;;;;;;;22.05;53.85;100533.97;7309820;19;129413;-36
2023/09/24 10:29:45;;;;;;;126.53;7.95;;;;;;;22.00;53.31;100534.31;7306807;19;130418;-35
2023/09/24 10:32:17;;;;;;;72.45;5.15;;;;;;;21.98;52.63;100536.25;7303616;19;130345;-36
2023/09/24 10:34:54;;;;;;;44.17;3.67;;;;;;;21.96;53.68;100540.75;7304740;19;131161;-35
2023/09/24 10:37:19;;;;;;;118.03;7.95;;;;;;;22.01;51.62;100533.38;7308995;19;129357;-37
2023/09/24 10:40:09;;;;;;;38.47;2.90;;;;;;;22.02;53.95;100535.03;7306122;19;130323;-37
2023/09/24 10:42:39;;;;;;;64.32;4.57;;;;;;;21.82;51.94;100513.03;7305414;19;130524;-36
2023/09/24 10:45:07;;;;;;;48.97;3.65;;;;;;;21.94;52.76;100530.41;7309742;19;132119;-36
2023/09/24 10:47:40;;;;;;;128.80;8.25;;;;;;;21.93;53.41;100533.97;7307576;19;129675;-34
2023/09/24 10:50:12;;;;;;;57.75;4.18;;;;;;;21.93;51.78;100539.19;7301270;19;131686;-36
2023/09/24 10:53:03;;;;;;;34.13;2.72;;;;;;;21.94;53.77;100527.78;7303626;19;131203;-34
2023/09/24 10:55:29;;;;;;;53.90;4.00;;;;;;;21.91;51.99;100528.00;7306975;19;131137;-36
2023/09/24 10:57:56;;;;;;;62.22;4.15;;;;;;;21.95;51.71;100524.22;7308376;19;129421;-34
2023/09/24 11:00:23;;;;;;;87.90;5.15;;;;;;;21.92;52.13;100521.84;7295586;19;131063;-34
2023/09/24 11:02:59;;;;;;;67.68;4.15;;;;;;;21.98;52.88;100519.69;7300575;19;130364;-34
2023/09/24 11:05:25;;;;;;;79.75;5.38;;;;;;;21.96;52.25;100512.78;7306925;19;129433;-35
2023/09/24 11:07:52;;;;;;;37.28;2.92;;;;;;;21.98;52.20;100517.06;7310580;19;129778;-37
2023/09/24 11:10:25;;;;;;;87.45;6.28;;;;;;;22.00;52.51;100512.56;7303781;19;130167;-37